Time;durP1;ratioP1;P1;durP2;ratioP2;P2;SDS_P1;SDS_P2;PMS_P1;PMS_P2;Temp;Humidity;BMP_temperature;BMP_pressure;BME280_temperature;BME280_humidity;BME280_pressure;Samples;Min_cycle;Max_cycle;Signal;HPM_P1;HPM_P2
2023/08/01 00:00:48;;;;;;;;;3.50;2.25;;;;;24.46;87.70;99578.09;6200049;22;44861;-85
2023/08/01 00:03:14;;;;;;;;;2.25;2.00;;;;;24.52;87.46;99585.91;6200490;22;46953;-85
2023/08/01 00:05:44;;;;;;;;;1.00;1.00;;;;;24.79;87.74;99576.09;6201828;22;44844;-84
2023/08/01 00:08:12;;;;;;;;;3.25;3.25;;;;;24.60;87.87;99588.13;6228798;22;45080;-85
2023/08/01 00:10:38;;;;;;;;;3.00;3.00;;;;;24.54;87.40;99588.50;6201558;22;44771;-85
2023/08/01 00:13:04;;;;;;;;;3.75;3.50;;;;;24.46;87.21;99586.25;6200733;22;47119;-84
2023/08/01 00:15:29;;;;;;;;;1.00;1.00;;;;;24.46;87.44;99579.91;6200825;22;44850;-85
2023/08/01 00:17:54;;;;;;;;;2.75;2.75;;;;;24.59;87.02;99582.81;6198863;22;44776;-85
2023/08/01 00:20:20;;;;;;;;;3.00;3.00;;;;;24.47;87.48;99582.53;6200772;22;45052;-85
2023/08/01 00:22:48;;;;;;;;;2.00;2.00;;;;;24.53;86.99;99598.50;6200044;22;47234;-84
2023/08/01 00:25:14;;;;;;;;;3.00;3.00;;;;;24.54;87.15;99585.78;6200621;22;44786;-83
2023/08/01 00:27:39;;;;;;;;;3.00;3.00;;;;;24.54;87.06;99586.69;6227820;22;45148;-85
2023/08/01 00:30:05;;;;;;;;;4.00;2.00;;;;;24.64;86.20;99583.38;6200449;22;44799;-84
2023/08/01 00:32:31;;;;;;;;;3.75;3.75;;;;;24.59;85.47;99574.66;6227150;22;46902;-85
2023/08/01 00:34:56;;;;;;;;;2.00;2.00;;;;;24.61;85.40;99580.84;6199304;22;44982;-84
2023/08/01 00:37:22;;;;;;;;;3.75;3.75;;;;;24.61;85.55;99567.28;6201703;22;45015;-82
2023/08/01 00:39:47;;;;;;;;;5.00;3.00;;;;;24.59;85.58;99561.06;6229461;22;44829;-84
2023/08/01 00:42:15;;;;;;;;;3.50;2.00;;;;;24.59;85.88;99570.06;6199855;22;47042;-84
2023/08/01 00:44:41;;;;;;;;;1.50;1.50;;;;;24.58;85.66;99567.44;6229621;22;44887;-85
2023/08/01 00:47:09;;;;;;;;;2.00;2.00;;;;;24.64;85.32;99561.63;6201302;22;45436;-85
2023/08/01 00:49:35;;;;;;;;;3.00;1.33;;;;;24.61;85.10;99564.56;6229200;22;44861;-85
2023/08/01 00:52:00;;;;;;;;;2.00;2.00;;;;;24.64;84.95;99556.19;6202671;22;46989;-84
2023/08/01 00:54:26;;;;;;;;;3.33;2.00;;;;;24.77;84.70;99559.88;6204767;22;44872;-84
2023/08/01 00:56:52;;;;;;;;;2.00;2.00;;;;;24.74;84.49;99560.06;6229706;22;45137;-83
2023/08/01 00:59:18;;;;;;;;;2.00;2.00;;;;;24.77;85.28;99546.28;6228033;22;44810;-84
2023/08/01 01:01:44;;;;;;;;;3.00;3.00;;;;;24.59;85.44;99552.91;6221451;22;45232;-81
2023/08/01 01:04:09;;;;;;;;;3.00;3.00;;;;;24.53;85.61;99546.88;6219812;22;44742;-80
2023/08/01 01:06:43;;;;;;;;;2.00;2.00;;;;;24.78;86.35;99539.88;6219007;22;44620;-81
2023/08/01 01:09:16;;;;;;;;;3.00;3.00;;;;;24.83;85.92;99535.00;6218864;22;44787;-80
2023/08/01 01:11:42;;;;;;;;;2.25;2.25;;;;;24.51;86.26;99564.25;6192303;22;46721;-80
2023/08/01 01:14:07;;;;;;;;;2.00;2.00;;;;;24.43;85.96;99561.09;6192457;22;45654;-81
2023/08/01 01:16:33;;;;;;;;;2.00;2.00;;;;;24.48;86.11;99591.56;6220641;22;45296;-80
2023/08/01 01:18:59;;;;;;;;;3.50;3.00;;;;;24.37;86.02;99594.97;6192677;22;44917;-81
2023/08/01 01:21:24;;;;;;;;;2.50;1.00;;;;;23.03;100.00;99615.44;6220508;22;45376;-84
2023/08/01 01:23:51;;;;;;;;;0.00;0.00;;;;;27.08;100.00;99596.03;6190321;22;45646;-84
2023/08/01 01:26:21;;;;;;;;;0.00;0.00;;;;;27.97;100.00;99603.09;6194088;22;45119;-83
2023/08/01 01:28:48;;;;;;;;;1.25;0.00;;;;;26.30;100.00;99591.56;6193788;22;45234;-83
2023/08/01 01:31:15;;;;;;;;;0.75;0.00;;;;;25.74;100.00;99598.00;6220720;22;45490;-81
2023/08/01 01:33:42;;;;;;;;;0.00;0.00;;;;;25.22;100.00;99598.72;6219991;22;45297;-82
2023/08/01 01:36:08;;;;;;;;;0.00;0.00;;;;;24.71;100.00;99607.38;6187427;23;44837;-82
2023/08/01 01:38:33;;;;;;;;;0.00;0.00;;;;;24.38;100.00;99613.03;6190790;23;45680;-82
2023/08/01 01:40:59;;;;;;;;;0.00;0.00;;;;;24.33;100.00;99607.00;6187533;22;46778;-81
2023/08/01 01:43:24;;;;;;;;;0.00;0.00;;;;;24.34;100.00;99603.31;6188594;22;44807;-82
2023/08/01 01:46:27;;;;;;;;;0.00;0.00;;;;;24.97;100.00;99603.97;6184461;22;45419;-81
2023/08/01 01:48:59;;;;;;;;;0.25;0.00;;;;;24.21;100.00;99614.03;6188038;22;45300;-81
2023/08/01 01:51:29;;;;;;;;;0.00;0.00;;;;;24.72;100.00;99614.56;6190113;22;45300;-81
2023/08/01 01:53:55;;;;;;;;;0.00;0.00;;;;;24.46;100.00;99613.44;6188696;23;45323;-81
2023/08/01 01:56:24;;;;;;;;;0.00;0.00;;;;;24.53;100.00;99609.38;6190355;22;44827;-81
2023/08/01 01:59:29;;;;;;;;;0.75;0.00;;;;;24.71;100.00;99617.38;6188598;23;44786;-81
2023/08/01 02:01:55;;;;;;;;;0.00;0.00;;;;;24.27;100.00;99621.81;6187192;23;46060;-81
2023/08/01 02:04:21;;;;;;;;;0.25;0.00;;;;;24.30;100.00;99620.78;6187344;22;45026;-81
2023/08/01 02:06:47;;;;;;;;;0.00;0.00;;;;;24.24;100.00;99616.59;6189329;22;44776;-81
2023/08/01 02:09:13;;;;;;;;;0.25;0.00;;;;;24.17;100.00;99607.03;6189210;23;45250;-80
2023/08/01 02:12:25;;;;;;;;;0.00;0.00;;;;;24.77;100.00;99616.13;6185537;23;46070;-82
2023/08/01 02:14:50;;;;;;;;;1.00;1.00;;;;;24.11;100.00;99627.28;6186530;23;45353;-82
2023/08/01 02:17:16;;;;;;;;;0.00;0.00;;;;;24.14;100.00;99629.84;6188005;22;45302;-81
2023/08/01 02:19:43;;;;;;;;;1.00;1.00;;;;;24.13;100.00;99632.63;6188109;22;45505;-83
2023/08/01 02:22:08;;;;;;;;;0.50;0.50;;;;;23.99;100.00;99630.75;6186720;22;47975;-81
2023/08/01 02:24:35;;;;;;;;;2.50;2.00;;;;;24.36;100.00;99639.44;6186501;22;45377;-82
2023/08/01 02:27:00;;;;;;;;;1.50;1.50;;;;;24.02;100.00;99636.00;6184938;23;45424;-81
2023/08/01 02:29:25;;;;;;;;;2.00;2.00;;;;;23.95;100.00;99638.19;6188863;22;45399;-81
2023/08/01 02:31:52;;;;;;;;;1.25;1.25;;;;;23.93;100.00;99641.97;6188314;22;45327;-81
2023/08/01 02:34:19;;;;;;;;;1.25;1.25;;;;;24.20;100.00;99646.72;6186140;23;45353;-81
2023/08/01 02:36:47;;;;;;;;;1.75;1.75;;;;;23.81;100.00;99648.13;6186087;22;45234;-81
2023/08/01 02:39:12;;;;;;;;;3.00;3.00;;;;;23.74;100.00;99637.59;6186216;23;45381;-81
2023/08/01 02:41:38;;;;;;;;;3.00;3.00;;;;;23.78;100.00;99648.31;6186883;22;46998;-81
2023/08/01 02:44:05;;;;;;;;;2.50;1.00;;;;;23.87;100.00;99650.47;6186727;22;45404;-81
2023/08/01 02:46:31;;;;;;;;;4.75;1.25;;;;;23.82;100.00;99652.59;6190005;22;45348;-81
2023/08/01 02:48:57;;;;;;;;;2.50;2.50;;;;;24.14;100.00;99667.00;6190690;22;44815;-81
2023/08/01 02:51:25;;;;;;;;;2.00;2.00;;;;;23.99;100.00;99663.34;6189255;22;46618;-81
2023/08/01 02:53:50;;;;;;;;;2.00;2.00;;;;;23.64;100.00;99660.81;6190292;22;45296;-81
2023/08/01 02:56:15;;;;;;;;;1.00;1.00;;;;;23.59;100.00;99665.59;6191728;22;45564;-81
2023/08/01 02:58:42;;;;;;;;;2.00;2.00;;;;;23.51;100.00;99668.78;6186985;23;45396;-81
2023/08/01 03:01:09;;;;;;;;;1.00;1.00;;;;;23.52;100.00;99680.50;6188666;22;45990;-80
2023/08/01 03:03:35;;;;;;;;;1.25;1.25;;;;;23.44;100.00;99682.78;6187502;22;45450;-81
2023/08/01 03:06:01;;;;;;;;;0.50;0.25;;;;;23.40;100.00;99692.03;6186888;23;45286;-81
2023/08/01 03:08:27;;;;;;;;;1.00;1.00;;;;;23.43;100.00;99681.00;6187401;23;45222;-81
2023/08/01 03:10:54;;;;;;;;;0.00;0.00;;;;;23.75;100.00;99682.78;6187715;22;45487;-81
2023/08/01 03:16:42;;;;;;;;;0.75;0.75;;;;;23.47;100.00;99690.72;6189604;22;45266;-81
2023/08/01 03:19:08;;;;;;;;;0.75;0.75;;;;;23.39;100.00;99691.19;6188375;22;44824;-81
2023/08/01 03:21:34;;;;;;;;;0.00;0.00;;;;;23.30;100.00;99697.09;6187421;23;45318;-79
2023/08/01 03:24:02;;;;;;;;;1.50;1.50;;;;;23.64;100.00;99704.22;6187115;22;45394;-79
2023/08/01 03:26:29;;;;;;;;;2.00;2.00;;;;;23.58;100.00;99701.00;6187351;22;44873;-81
2023/08/01 03:28:55;;;;;;;;;1.00;1.00;;;;;23.27;100.00;99711.72;6185917;23;45519;-81
2023/08/01 03:31:22;;;;;;;;;1.25;1.25;;;;;23.33;100.00;99711.38;6186044;23;46800;-80
2023/08/01 03:33:47;;;;;;;;;1.00;1.00;;;;;23.24;100.00;99714.59;6186766;22;45195;-81
2023/08/01 03:36:20;;;;;;;;;1.00;1.00;;;;;23.74;100.00;99720.88;6207122;22;45404;-81
2023/08/01 03:38:45;;;;;;;;;2.00;0.50;;;;;23.19;100.00;99724.81;6220769;22;45514;-81
2023/08/01 03:41:11;;;;;;;;;1.00;1.00;;;;;23.11;100.00;99729.78;6219718;22;45476;-80
2023/08/01 03:43:37;;;;;;;;;0.75;0.75;;;;;23.11;100.00;99730.66;6193296;22;45532;-81
2023/08/01 03:46:02;;;;;;;;;2.00;0.75;;;;;23.13;100.00;99736.00;6192098;22;45347;-82
2023/08/01 03:48:29;;;;;;;;;2.00;1.00;;;;;23.00;100.00;99735.75;6192378;22;45350;-80
2023/08/01 03:50:55;;;;;;;;;1.00;1.00;;;;;23.07;100.00;99741.78;6193114;22;46032;-81
2023/08/01 03:53:20;;;;;;;;;3.00;1.50;;;;;22.83;100.00;99739.34;6193721;22;45364;-80
2023/08/01 03:55:47;;;;;;;;;2.00;1.25;;;;;22.85;100.00;99740.16;6192508;22;45337;-80
2023/08/01 03:58:14;;;;;;;;;0.50;0.50;;;;;22.70;100.00;99743.66;6192955;22;45158;-81
2023/08/01 04:00:40;;;;;;;;;2.00;2.00;;;;;22.69;100.00;99750.91;6219630;22;45554;-81
2023/08/01 04:03:05;;;;;;;;;2.75;2.75;;;;;22.68;100.00;99749.19;6219077;22;45493;-81
2023/08/01 04:05:31;;;;;;;;;2.00;2.00;;;;;22.72;100.00;99742.66;6218758;22;45371;-80
2023/08/01 04:07:57;;;;;;;;;1.50;1.50;;;;;22.81;100.00;99752.13;6220505;22;45276;-80
2023/08/01 04:10:25;;;;;;;;;1.25;1.25;;;;;23.11;100.00;99746.06;6167954;22;47024;-80
2023/08/01 04:12:51;;;;;;;;;5.00;2.00;;;;;22.78;100.00;99749.56;6193833;22;45275;-80
2023/08/01 04:18:38;;;;;;;;;6.33;3.33;;;;;22.76;100.00;99748.75;6220479;22;45285;-81
2023/08/01 04:21:07;;;;;;;;;2.33;2.33;;;;;22.76;100.00;99746.94;6219333;22;45061;-80
2023/08/01 04:23:35;;;;;;;;;3.75;2.00;;;;;22.98;100.00;99734.94;6217013;22;45825;-80
2023/08/01 04:26:05;;;;;;;;;3.00;1.33;;;;;22.88;100.00;99742.69;6192804;22;44844;-80
2023/08/01 04:28:31;;;;;;;;;2.00;2.00;;;;;22.55;100.00;99742.63;6220723;22;45297;-80
2023/08/01 04:30:57;;;;;;;;;1.00;1.00;;;;;22.40;100.00;99733.47;6193491;22;46704;-81
2023/08/01 04:33:22;;;;;;;;;2.33;2.33;;;;;22.50;100.00;99751.00;6190446;22;46298;-80
2023/08/01 04:35:49;;;;;;;;;2.00;2.00;;;;;22.44;100.00;99751.31;6185501;22;45294;-80
2023/08/01 04:38:14;;;;;;;;;3.00;2.67;;;;;22.32;100.00;99735.69;6187385;22;45334;-80
2023/08/01 04:40:41;;;;;;;;;1.33;1.33;;;;;22.39;100.00;99742.53;6189659;22;44993;-80
2023/08/01 04:43:11;;;;;;;;;3.00;1.25;;;;;22.67;100.00;99735.69;6188518;23;45454;-80
2023/08/01 04:45:37;;;;;;;;;2.25;2.25;;;;;22.27;100.00;99735.03;6190788;22;45478;-80
2023/08/01 04:48:04;;;;;;;;;3.25;2.00;;;;;22.29;100.00;99741.25;6188093;22;44960;-80
2023/08/01 04:50:29;;;;;;;;;3.50;2.00;;;;;22.20;100.00;99745.28;6189148;22;47140;-80
2023/08/01 04:52:55;;;;;;;;;7.00;4.00;;;;;22.45;100.00;99742.22;6189913;22;45366;-80
2023/08/01 04:55:22;;;;;;;;;2.00;2.00;;;;;22.48;100.00;99752.00;6188456;22;44873;-80
2023/08/01 04:57:47;;;;;;;;;2.75;2.75;;;;;22.16;100.00;99746.38;6187125;23;45576;-81
2023/08/01 05:00:14;;;;;;;;;3.50;3.00;;;;;22.40;100.00;99747.00;6187106;22;46939;-80
2023/08/01 05:02:39;;;;;;;;;4.25;2.25;;;;;22.25;100.00;99756.75;6186954;23;45703;-80
2023/08/01 05:05:06;;;;;;;;;2.50;2.50;;;;;22.74;100.00;99758.81;6187912;22;45382;-80
2023/08/01 05:07:35;;;;;;;;;5.00;2.00;;;;;22.71;100.00;99757.13;6185883;22;45536;-80
2023/08/01 05:10:01;;;;;;;;;3.25;2.75;;;;;22.53;100.00;99760.81;6187131;22;47047;-80
2023/08/01 05:12:29;;;;;;;;;4.00;3.00;;;;;22.88;100.00;99772.50;6187824;22;44777;-80
2023/08/01 05:14:54;;;;;;;;;3.00;3.00;;;;;22.54;100.00;99766.16;6188206;22;45242;-80
2023/08/01 05:17:22;;;;;;;;;3.50;3.50;;;;;22.94;100.00;99766.75;6187696;22;45306;-81
2023/08/01 05:19:48;;;;;;;;;1.75;1.75;;;;;22.99;100.00;99771.09;6189058;22;45624;-80
2023/08/01 05:22:14;;;;;;;;;3.25;3.25;;;;;22.74;100.00;99769.66;6185683;23;45345;-80
2023/08/01 05:24:39;;;;;;;;;4.00;4.00;;;;;22.84;100.00;99768.22;6184599;22;45265;-80
2023/08/01 05:27:05;;;;;;;;;4.75;4.25;;;;;23.01;100.00;99782.75;6187372;23;44824;-80
2023/08/01 05:29:30;;;;;;;;;2.67;2.67;;;;;22.90;100.00;99786.00;6187123;22;47179;-80
2023/08/01 05:31:59;;;;;;;;;2.75;2.75;;;;;23.37;100.00;99779.94;6162244;22;45093;-80
2023/08/01 05:34:24;;;;;;;;;4.00;4.00;;;;;23.07;100.00;99794.16;6189414;23;44825;-80
2023/08/01 05:36:50;;;;;;;;;3.00;3.00;;;;;23.12;100.00;99791.19;6189262;22;44844;-81
2023/08/01 05:39:16;;;;;;;;;4.00;4.00;;;;;23.09;100.00;99796.81;6188807;22;47215;-81
2023/08/01 05:41:42;;;;;;;;;3.00;3.00;;;;;23.13;100.00;99801.09;6187067;22;44906;-80
2023/08/01 05:44:08;;;;;;;;;2.25;2.25;;;;;23.14;100.00;99800.13;6190621;22;45691;-81
2023/08/01 05:46:34;;;;;;;;;2.00;2.00;;;;;23.09;100.00;99803.09;6189071;22;44856;-81
2023/08/01 05:48:59;;;;;;;;;2.25;2.25;;;;;23.14;100.00;99805.56;6190102;23;47332;-80
2023/08/01 05:51:25;;;;;;;;;2.50;2.50;;;;;23.38;100.00;99799.78;6188810;22;45352;-82
2023/08/01 05:53:50;;;;;;;;;3.00;3.00;;;;;23.58;100.00;99796.00;6190591;22;44900;-82
2023/08/01 05:56:16;;;;;;;;;3.25;3.25;;;;;23.72;100.00;99802.41;6190277;22;45345;-81
2023/08/01 05:58:41;;;;;;;;;4.50;2.25;;;;;23.85;100.00;99801.75;6188800;22;45498;-80
2023/08/01 06:01:08;;;;;;;;;4.25;2.50;;;;;23.91;100.00;99804.13;6186888;23;45082;-80
2023/08/01 06:03:38;;;;;;;;;4.25;4.00;;;;;23.83;100.00;99809.09;6186416;23;45375;-81
2023/08/01 06:06:05;;;;;;;;;3.75;3.75;;;;;23.88;100.00;99812.47;6183432;23;45434;-81
2023/08/01 06:08:31;;;;;;;;;3.25;3.25;;;;;23.59;100.00;99812.16;6185328;22;45578;-81
2023/08/01 06:11:00;;;;;;;;;4.50;3.50;;;;;23.58;100.00;99815.00;6185057;23;45361;-80
2023/08/01 06:13:25;;;;;;;;;4.00;4.00;;;;;23.74;100.00;99811.34;6185462;23;45321;-82
2023/08/01 06:15:50;;;;;;;;;3.67;3.00;;;;;23.95;100.00;99809.28;6188026;22;45432;-81
2023/08/01 06:18:33;;;;;;;;;3.00;3.00;;;;;24.60;100.00;99815.59;6185724;23;46893;-82
2023/08/01 06:21:04;;;;;;;;;2.00;0.25;;;;;24.61;100.00;99811.94;6187632;23;45367;-83
2023/08/01 06:23:39;;;;;;;;;3.00;3.00;;;;;24.80;100.00;99818.00;6186610;23;45696;-81
2023/08/01 06:26:05;;;;;;;;;4.00;3.00;;;;;24.48;100.00;99818.06;6188012;22;45451;-80
2023/08/01 06:28:30;;;;;;;;;5.33;5.33;;;;;24.73;100.00;99832.97;6185751;23;47434;-81
2023/08/01 06:30:56;;;;;;;;;3.33;3.00;;;;;24.89;100.00;99825.63;6186923;23;45434;-81
2023/08/01 06:33:22;;;;;;;;;4.00;4.00;;;;;25.05;100.00;99828.31;6185825;23;44872;-80
2023/08/01 06:35:49;;;;;;;;;2.75;2.75;;;;;25.54;100.00;99830.75;6195106;22;45281;-79
2023/08/01 06:38:25;;;;;;;;;4.50;4.50;;;;;25.83;100.00;99827.16;6191590;22;45434;-82
2023/08/01 06:40:51;;;;;;;;;7.50;6.50;;;;;25.52;100.00;99820.94;6193655;22;45324;-81
2023/08/01 06:46:39;;;;;;;;;4.50;3.00;;;;;25.72;100.00;99839.59;6223605;22;44778;-81
2023/08/01 06:49:04;;;;;;;;;3.75;3.75;;;;;25.67;100.00;99847.22;6197702;22;46270;-82
2023/08/01 06:51:34;;;;;;;;;3.50;2.25;;;;;25.90;100.00;99836.72;6197952;22;44717;-82
2023/08/01 06:54:00;;;;;;;;;8.00;5.25;;;;;25.34;100.00;99845.59;6223825;22;44821;-81
2023/08/01 06:56:27;;;;;;;;;3.75;3.75;;;;;25.57;100.00;99854.19;6224773;22;44769;-82
2023/08/01 07:01:34;;;;;;;;;5.25;3.75;;;;;25.47;100.00;99861.16;6252485;22;45044;-82
2023/08/01 07:04:03;;;;;;;;;3.75;3.75;;;;;25.24;100.00;99855.28;6224634;22;45345;-82
2023/08/01 07:06:34;;;;;;;;;6.00;5.00;;;;;24.66;100.00;99813.41;6228331;22;44824;-82
2023/08/01 07:09:00;;;;;;;;;4.50;4.50;;;;;24.87;100.00;99851.19;6255352;22;45288;-82
2023/08/01 07:11:26;;;;;;;;;5.75;5.50;;;;;24.92;100.00;99844.47;6225335;22;45246;-81
2023/08/01 07:15:09;;;;;;;;;5.00;5.00;;;;;25.49;100.00;99832.00;6228514;22;44742;-83
2023/08/01 07:20:33;;;;;;;;;7.00;4.00;;;;;25.40;100.00;99859.81;6154466;23;45529;-83
2023/08/01 07:23:02;;;;;;;;;4.00;4.00;;;;;25.48;100.00;99824.81;6135200;23;45450;-82
2023/08/01 07:43:08;;;;;;;;;4.25;3.75;;;;;25.74;100.00;99869.47;6011785;23;45654;-80
2023/08/01 07:45:40;;;;;;;;;4.33;4.33;;;;;26.20;100.00;99884.75;6063456;23;47076;-81
2023/08/01 07:48:05;;;;;;;;;4.00;4.00;;;;;25.44;99.55;99864.09;6068280;23;45528;-79
2023/08/01 07:50:31;;;;;;;;;5.00;4.00;;;;;25.46;100.00;99890.25;6043412;23;45390;-81
2023/08/01 07:52:59;;;;;;;;;3.75;3.00;;;;;25.53;100.00;99850.78;6119555;23;45416;-80
2023/08/01 07:55:25;;;;;;;;;4.50;4.50;;;;;25.30;100.00;99887.56;6185340;23;45837;-81
2023/08/01 07:57:50;;;;;;;;;5.75;4.00;;;;;25.20;100.00;99891.78;6184971;23;44758;-80
2023/08/01 08:00:17;;;;;;;;;5.50;3.25;;;;;25.31;90.16;99894.78;6198118;22;44973;-81
2023/08/01 08:02:49;;;;;;;;;6.50;4.00;;;;;25.79;100.00;99886.38;6241933;22;45347;-81
2023/08/01 08:05:14;;;;;;;;;6.50;4.25;;;;;25.58;100.00;99869.56;6248150;22;45442;-81
2023/08/01 08:07:47;;;;;;;;;4.25;4.25;;;;;26.17;100.00;99860.44;6229099;22;45328;-82
2023/08/01 08:10:21;;;;;;;;;4.00;3.25;;;;;26.08;100.00;99900.94;6248892;22;45474;-81
2023/08/01 08:12:49;;;;;;;;;4.00;4.00;;;;;25.99;100.00;99867.94;6246693;22;44784;-83
2023/08/01 08:16:07;;;;;;;;;4.25;4.00;;;;;26.50;100.00;99857.34;6221731;22;46588;-80
2023/08/01 08:18:33;;;;;;;;;8.50;6.00;;;;;26.06;100.00;99853.84;6040514;23;45501;-80
2023/08/01 08:21:08;;;;;;;;;;;;;;;;;;;;;
2023/08/01 08:23:44;;;;;;;;;5.50;5.50;;;;;26.42;100.00;99900.59;6071511;23;65207;-80
2023/08/01 08:26:11;;;;;;;;;5.75;5.00;;;;;26.36;95.56;99874.63;6070078;23;47057;-81
2023/08/01 08:28:45;;;;;;;;;3.25;3.00;;;;;26.80;100.00;99899.94;6072001;23;45407;-80
2023/08/01 08:34:14;;;;;;;;;6.75;5.00;;;;;26.91;97.74;99884.63;6016503;23;44858;-83
2023/08/01 08:39:54;;;;;;;;;4.00;4.00;;;;;26.43;99.70;99892.31;6009944;23;44855;-81
2023/08/01 08:42:32;;;;;;;;;4.00;4.00;;;;;26.29;100.00;99870.53;6014670;23;45474;-82
2023/08/01 08:45:01;;;;;;;;;4.75;4.25;;;;;26.94;100.00;99900.78;6014763;23;45377;-82
2023/08/01 08:47:37;;;;;;;;;6.00;5.75;;;;;26.93;100.00;99909.06;6020204;23;45714;-83
2023/08/01 08:50:14;;;;;;;;;7.00;4.00;;;;;26.69;100.00;99889.78;5996123;23;45510;-83
2023/08/01 08:53:12;;;;;;;;;5.00;4.00;;;;;27.26;100.00;99905.91;6016063;23;44801;-84
2023/08/01 08:56:05;;;;;;;;;;;;;;;;;;;;;
2023/08/01 08:58:46;;;;;;;;;4.00;4.00;;;;;27.42;100.00;99900.28;6230279;22;74504;-85
2023/08/01 09:01:20;;;;;;;;;5.00;4.25;;;;;27.34;92.92;99909.00;6253842;22;45312;-84
2023/08/01 09:03:48;;;;;;;;;5.75;4.50;;;;;27.63;100.00;99903.38;6255229;22;44830;-83
2023/08/01 09:06:16;;;;;;;;;5.25;4.50;;;;;27.67;100.00;99906.75;6256794;22;44709;-83
2023/08/01 09:09:01;;;;;;;;;3.50;3.50;;;;;27.48;83.44;99877.13;6227570;22;47253;-83
2023/08/01 09:11:26;;;;;;;;;6.00;5.00;;;;;26.99;97.27;99872.31;6228234;22;44851;-83
2023/08/01 09:14:01;;;;;;;;;5.00;5.00;;;;;26.93;84.51;99888.13;6258863;22;44669;-83
2023/08/01 09:17:18;;;;;;;;;3.50;3.00;;;;;27.32;100.00;99910.97;6227685;22;44835;-85
2023/08/01 09:19:43;;;;;;;;;5.25;5.00;;;;;27.11;100.00;99906.97;6244515;22;47515;-83
2023/08/01 09:22:19;;;;;;;;;4.00;4.00;;;;;27.56;80.03;99917.56;6229577;22;44809;-84
2023/08/01 09:25:04;;;;;;;;;4.00;3.75;;;;;27.34;100.00;99878.97;6230420;22;45336;-83
2023/08/01 09:27:36;;;;;;;;;3.50;3.00;;;;;27.41;100.00;99878.53;6259497;22;44842;-82
2023/08/01 09:30:17;;;;;;;;;6.00;4.50;;;;;27.56;100.00;99871.13;6225750;22;45073;-84
2023/08/01 09:32:58;;;;;;;;;6.00;4.50;;;;;27.96;94.28;99871.06;6250043;22;44764;-83
2023/08/01 09:35:48;;;;;;;;;3.00;3.00;;;;;28.17;100.00;99887.75;6225761;22;45265;-83
2023/08/01 09:42:12;;;;;;;;;2.00;1.25;;;;;28.51;96.54;99911.66;6120535;23;45686;-85
2023/08/01 10:13:30;;;;;;;;;3.75;3.00;;;;;27.59;87.32;99896.38;6071460;23;44922;-82
2023/08/01 10:16:18;;;;;;;;;;;;;;;;;;;;;
2023/08/01 10:26:16;;;;;;;;;5.00;4.25;;;;;28.58;100.00;99922.13;6254010;22;44788;-84
2023/08/01 10:43:49;;;;;;;;;4.25;3.25;;;;;28.35;96.26;99899.19;6106562;23;44827;-82
2023/08/01 11:03:12;;;;;;;;;4.25;3.50;;;;;28.46;79.52;99907.47;6186244;23;45392;-80
2023/08/01 12:21:16;;;;;;;;;4.00;4.00;;;;;30.46;82.64;99920.31;6134292;22;45862;31
2023/08/01 12:23:42;;;;;;;;;2.50;2.00;;;;;29.91;83.59;99892.75;6174120;23;45094;-80
2023/08/01 12:26:25;;;;;;;;;4.00;4.00;;;;;30.73;85.87;99919.03;6201832;22;46156;-81
2023/08/01 12:29:12;;;;;;;;;5.00;3.75;;;;;30.86;83.72;99895.03;6266267;22;44811;-81
2023/08/01 12:31:38;;;;;;;;;5.00;3.75;;;;;30.66;88.46;99926.00;6238967;22;46636;-80
2023/08/01 12:34:07;;;;;;;;;4.00;4.00;;;;;30.82;82.05;99922.88;6269338;22;44783;-80
2023/08/01 12:36:34;;;;;;;;;3.00;3.00;;;;;31.24;85.99;99912.88;6270988;22;44747;-80
2023/08/01 12:39:15;;;;;;;;;3.25;3.25;;;;;31.03;85.73;99914.75;6270917;22;44891;-81
2023/08/01 13:11:18;;;;;;;;;3.00;3.00;;;;;32.37;69.07;99914.09;6267784;22;45594;-80
2023/08/01 13:14:02;;;;;;;;;3.75;2.75;;;;;32.23;81.55;99901.56;6255407;22;46970;-82
2023/08/01 13:16:31;;;;;;;;;3.25;3.25;;;;;32.06;82.09;99933.34;6227974;22;45331;-82
2023/08/01 13:26:02;;;;;;;;;4.50;3.75;;;;;32.02;73.32;99913.50;6219487;22;45207;-82
2023/08/01 13:28:54;;;;;;;;;1.00;1.00;;;;;31.74;84.80;99916.91;6196439;22;45240;-81
2023/08/01 13:31:30;;;;;;;;;0.50;0.50;;;;;31.88;84.64;99950.44;6219661;22;45539;-82
2023/08/01 13:34:09;;;;;;;;;2.50;2.50;;;;;31.74;76.53;99952.66;6246865;22;44999;-82
2023/08/01 13:36:38;;;;;;;;;3.00;3.00;;;;;31.35;79.67;99933.06;6252977;22;47239;-80
2023/08/01 13:39:20;;;;;;;;;2.50;2.50;;;;;31.56;79.33;99914.75;6220675;22;45312;-80
2023/08/01 13:46:04;;;;;;;;;4.00;2.25;;;;;31.98;88.60;99913.88;6144519;22;45385;-82
2023/08/01 13:49:26;;;;;;;;;4.25;2.00;;;;;32.33;88.49;99927.25;6133067;23;45381;-81
2023/08/01 13:55:12;;;;;;;;;3.50;3.00;;;;;32.01;82.27;99917.25;6108591;23;45443;-81
2023/08/01 13:57:43;;;;;;;;;3.00;2.50;;;;;31.78;86.59;99901.91;6124014;23;45197;-82
2023/08/01 14:04:13;;;;;;;;;2.25;2.25;;;;;32.13;83.77;99928.16;6126585;23;44846;-82
2023/08/01 14:10:28;;;;;;;;;2.25;2.25;;;;;35.13;92.76;99910.66;5952768;23;44801;-80
2023/08/01 14:14:01;;;;;;;;;;;;;;;;;;;;;
2023/08/01 14:17:28;;;;;;;;;2.25;2.00;;;;;33.41;76.37;99931.13;5892219;24;71494;-81
2023/08/01 14:20:05;;;;;;;;;1.00;1.00;;;;;32.43;78.28;99903.38;5923722;23;44847;-82
2023/08/01 14:22:30;;;;;;;;;1.00;1.00;;;;;31.89;69.56;99926.53;5963040;23;44724;-81
2023/08/01 14:24:59;;;;;;;;;3.75;2.00;;;;;31.68;75.07;99930.19;5979534;23;46933;-81
2023/08/01 14:27:27;;;;;;;;;2.00;1.25;;;;;31.27;71.01;99931.88;6039062;23;45225;-81
2023/08/01 14:30:05;;;;;;;;;2.25;2.25;;;;;31.14;72.06;99914.69;6067672;23;44855;-82
2023/08/01 14:32:39;;;;;;;;;2.25;2.25;;;;;30.87;74.63;99916.00;6066677;23;44760;-81
2023/08/01 14:38:21;;;;;;;;;;;;;;;;;;;;;
2023/08/01 14:40:53;;;;;;;;;2.25;2.25;;;;;30.27;73.50;99928.25;6066046;23;68182;-80
2023/08/01 14:43:40;;;;;;;;;2.25;2.00;;;;;30.53;76.26;99931.66;6065374;23;45123;-81
2023/08/01 14:46:06;;;;;;;;;3.00;3.00;;;;;29.99;71.61;99933.22;6127179;22;47259;-81
2023/08/01 14:48:47;;;;;;;;;2.00;2.00;;;;;30.03;69.60;99940.22;6249226;22;44685;-81
2023/08/01 14:51:21;;;;;;;;;3.00;3.00;;;;;29.75;79.32;99935.19;6250650;22;44871;-81
2023/08/01 14:54:26;;;;;;;;;3.00;1.75;;;;;29.99;73.16;99960.66;6222474;22;45331;-80
2023/08/01 14:56:57;;;;;;;;;1.50;1.50;;;;;29.03;74.34;99941.59;6125408;23;46806;-81
2023/08/01 14:59:23;;;;;;;;;3.75;3.00;;;;;28.56;78.77;99971.53;6098921;23;44726;-81
2023/08/01 15:01:52;;;;;;;;;2.00;2.00;;;;;28.35;87.93;99976.63;6126415;23;45028;-81
2023/08/01 15:04:21;;;;;;;;;5.25;3.25;;;;;27.87;93.33;99963.63;6127425;23;44848;-81
2023/08/01 15:06:56;;;;;;;;;3.25;3.25;;;;;28.69;95.72;99969.59;6125477;23;47230;-81
2023/08/01 15:09:27;;;;;;;;;4.00;3.00;;;;;28.78;95.29;99929.72;6103655;23;44847;-81
2023/08/01 15:11:58;;;;;;;;;5.00;5.00;;;;;29.07;86.77;99949.44;6101437;23;45260;-80
2023/08/01 15:14:23;;;;;;;;;3.00;3.00;;;;;28.95;88.35;99946.78;6127447;23;45475;-80
2023/08/01 15:16:49;;;;;;;;;4.00;4.00;;;;;29.39;96.15;99939.78;6127049;23;46783;-79
2023/08/01 15:19:15;;;;;;;;;6.75;5.75;;;;;29.82;95.67;99941.94;6100942;23;44883;-80
2023/08/01 15:21:44;;;;;;;;;5.00;4.25;;;;;29.66;91.86;99923.94;6102173;23;45379;-80
2023/08/01 15:24:13;;;;;;;;;4.50;4.50;;;;;29.53;97.85;99920.38;6128477;23;45305;-80
2023/08/01 15:26:38;;;;;;;;;3.50;3.25;;;;;29.20;89.28;99908.31;6124211;23;45032;-80
2023/08/01 15:29:04;;;;;;;;;7.00;6.00;;;;;29.10;97.58;99921.81;6099454;23;45338;-80
2023/08/01 15:31:31;;;;;;;;;4.25;4.25;;;;;29.36;96.50;99931.81;6125994;23;45787;-80
2023/08/01 15:33:57;;;;;;;;;4.75;4.75;;;;;29.20;91.33;99919.28;6183685;22;44760;-81
2023/08/01 15:36:27;;;;;;;;;3.25;3.00;;;;;31.69;100.00;99934.69;6218334;22;45157;-81
2023/08/01 15:38:53;;;;;;;;;4.00;4.00;;;;;31.92;98.52;99925.44;6213383;22;44749;-81
2023/08/01 15:41:18;;;;;;;;;6.00;6.00;;;;;31.67;94.82;99917.47;6242312;22;44827;-80
2023/08/01 15:43:44;;;;;;;;;4.00;4.00;;;;;31.22;91.48;99900.28;6219605;22;44784;-80
2023/08/01 15:46:12;;;;;;;;;3.75;3.00;;;;;31.14;89.48;99933.91;6218825;22;45544;-81
2023/08/01 15:48:40;;;;;;;;;3.33;3.00;;;;;31.08;81.75;99915.19;6216232;22;44910;-81
2023/08/01 15:51:09;;;;;;;;;3.50;3.50;;;;;30.67;83.11;99927.78;6216641;22;44802;-81